createdAt,value
2018-06-28T04:00:59.682Z,91.49
2018-06-28T04:01:59.470Z,91.77
2018-06-28T04:03:52.175Z,91.58
2018-06-28T04:04:52.042Z,91.49
2018-06-28T04:06:44.722Z,91.01
2018-06-28T04:07:44.618Z,91.77
2018-06-28T04:09:37.330Z,91.58
2018-06-28T04:10:37.195Z,91.58
2018-06-28T04:12:29.876Z,91.49
2018-06-28T04:13:29.771Z,91.20
2018-06-28T04:15:22.470Z,90.82
2018-06-28T04:16:22.354Z,90.53
2018-06-28T04:18:15.040Z,90.63
2018-06-28T04:19:14.933Z,90.63
2018-06-28T04:21:07.789Z,90.19
2018-06-28T04:22:07.505Z,90.48
2018-06-28T04:24:00.179Z,90.29
2018-06-28T04:25:00.075Z,90.39
2018-06-28T04:26:52.938Z,90.19
2018-06-28T04:27:52.654Z,90.29
2018-06-28T04:29:45.336Z,90.48
2018-06-28T04:30:45.241Z,90.29
2018-06-28T04:32:37.945Z,90.48
2018-06-28T04:33:37.805Z,90.19
2018-06-28T04:35:30.496Z,90.39
2018-06-28T04:36:30.388Z,90.19
2018-06-28T04:38:23.104Z,90.09
2018-06-28T04:39:22.985Z,90.39
2018-06-28T04:41:15.656Z,90.39
2018-06-28T04:42:15.549Z,89.90
2018-06-28T04:44:08.270Z,89.90
2018-06-28T04:45:08.130Z,89.52
2018-06-28T04:47:00.817Z,89.33
2018-06-28T04:48:00.717Z,89.62
2018-06-28T04:49:53.493Z,88.28
2018-06-28T04:50:53.296Z,87.23
2018-06-28T04:52:45.991Z,87.94
2018-06-28T04:53:45.881Z,87.94
2018-06-28T04:55:38.579Z,87.65
2018-06-28T04:56:38.456Z,87.55
2018-06-28T04:58:31.138Z,87.46
2018-06-28T04:59:31.044Z,87.46
2018-06-28T05:01:23.759Z,87.74
2018-06-28T05:02:23.618Z,87.37
2018-06-28T05:04:16.299Z,85.74
2018-06-28T05:05:16.188Z,85.93
2018-06-28T05:07:08.962Z,85.16
2018-06-28T05:08:08.759Z,84.11
2018-06-28T05:10:01.460Z,83.67
2018-06-28T05:11:01.342Z,84.15
2018-06-28T05:12:54.072Z,83.58
2018-06-28T05:13:53.931Z,82.90
2018-06-28T05:15:46.681Z,83.29
2018-06-28T05:16:46.605Z,82.90
2018-06-28T05:18:39.239Z,81.98
2018-06-28T05:19:39.104Z,82.27
2018-06-28T05:21:31.785Z,81.41
2018-06-28T05:22:31.684Z,80.35
2018-06-28T05:24:24.537Z,80.55
2018-06-28T05:25:24.256Z,80.26
2018-06-28T05:27:16.943Z,79.59
2018-06-28T05:28:16.839Z,79.68
2018-06-28T05:30:09.552Z,78.96
2018-06-28T05:31:09.419Z,78.57
2018-06-28T05:33:02.102Z,78.38
2018-06-28T05:34:01.999Z,78.57
2018-06-28T05:35:54.727Z,77.90
2018-06-28T05:36:54.604Z,77.90
2018-06-28T05:38:47.286Z,78.19
2018-06-28T05:39:47.186Z,78.19
2018-06-28T05:41:39.894Z,77.51
2018-06-28T05:42:39.760Z,77.36
2018-06-28T05:44:32.477Z,76.88
2018-06-28T05:45:32.344Z,76.88
2018-06-28T05:47:25.196Z,77.56
2018-06-28T05:48:25.065Z,77.84
2018-06-28T05:50:18.237Z,78.42
2018-06-28T05:51:18.141Z,78.61
2018-06-28T05:53:10.851Z,78.42
2018-06-28T05:54:10.782Z,79.19
2018-06-28T05:56:03.414Z,79.38
2018-06-28T05:57:03.307Z,79.38
2018-06-28T05:58:56.019Z,78.99
2018-06-28T05:59:55.886Z,78.70
2018-06-28T06:01:48.575Z,76.88
2018-06-28T06:02:48.468Z,77.08
2018-06-28T06:04:42.001Z,77.59
2018-06-28T06:05:41.048Z,77.01
2018-06-28T06:07:33.732Z,76.06
2018-06-28T06:08:33.630Z,75.48
2018-06-28T06:10:26.391Z,75.90
2018-06-28T06:11:26.212Z,74.75
2018-06-28T06:13:18.947Z,73.31
2018-06-28T06:14:18.785Z,73.15
2018-06-28T06:16:11.508Z,70.82
2018-06-28T06:17:11.381Z,67.10
2018-06-28T06:19:04.067Z,55.88
2018-06-28T06:20:03.968Z,51.16
2018-06-28T06:21:56.698Z,45.47
2018-06-28T06:22:56.564Z,41.22
2018-06-28T06:24:49.311Z,39.55
2018-06-28T06:25:49.199Z,38.49
2018-06-28T06:27:41.992Z,37.16
2018-06-28T06:28:41.856Z,35.71
2018-06-28T06:30:34.634Z,34.16
2018-06-28T06:31:34.509Z,33.10
2018-06-28T06:33:27.305Z,32.74
2018-06-28T06:34:27.213Z,32.15
2018-06-28T06:36:20.014Z,31.58
2018-06-28T06:37:19.780Z,31.10
2018-06-28T06:39:12.548Z,30.14
2018-06-28T06:40:12.437Z,30.43
2018-06-28T06:42:05.266Z,29.47
2018-06-28T06:43:05.104Z,29.37
2018-06-28T06:44:57.841Z,29.48
2018-06-28T06:45:57.730Z,29.20
2018-06-28T06:47:50.452Z,27.64
2018-06-28T06:48:50.442Z,27.25
2018-06-28T06:50:43.119Z,26.75
2018-06-28T06:51:43.003Z,26.56
2018-06-28T06:53:35.721Z,26.48
2018-06-28T06:54:35.637Z,25.79
2018-06-28T06:56:28.387Z,25.61
2018-06-28T06:57:28.275Z,24.73
2018-06-28T06:59:20.990Z,24.84
2018-06-28T07:00:20.911Z,24.74
2018-06-28T07:02:13.656Z,24.54
2018-06-28T07:03:13.549Z,24.54
2018-06-28T07:05:06.266Z,24.93
2018-06-28T07:06:06.185Z,24.35
2018-06-28T07:07:58.936Z,24.37
2018-06-28T07:08:58.822Z,23.86
2018-06-28T07:10:51.619Z,23.10
2018-06-28T07:11:51.533Z,22.41
2018-06-28T07:13:44.274Z,22.03
2018-06-28T07:14:44.174Z,22.24
2018-06-28T07:16:36.894Z,22.04
2018-06-28T07:17:36.812Z,21.94
2018-06-28T07:19:29.573Z,21.16
2018-06-28T07:20:29.466Z,21.26
2018-06-28T07:22:22.179Z,21.36
2018-06-28T07:23:22.100Z,20.68
2018-06-28T07:25:14.841Z,21.06
2018-06-28T07:26:14.742Z,21.26
2018-06-28T07:28:07.467Z,21.86
2018-06-28T07:29:07.389Z,21.07
2018-06-28T07:31:00.133Z,20.78
2018-06-28T07:32:00.028Z,20.48
2018-06-28T07:33:52.751Z,19.98
2018-06-28T07:34:52.678Z,20.38
2018-06-28T07:36:45.428Z,19.98
2018-06-28T07:37:45.320Z,20.28
2018-06-28T07:39:38.051Z,19.89
2018-06-28T07:40:37.970Z,20.09
2018-06-28T07:42:30.766Z,20.78
2018-06-28T07:43:30.619Z,19.68
2018-06-28T07:45:23.334Z,20.17
2018-06-28T07:46:23.270Z,20.48
2018-06-28T07:48:16.015Z,19.98
2018-06-28T07:49:15.908Z,20.57
2018-06-28T07:51:08.634Z,20.48
2018-06-28T07:52:08.545Z,19.59
2018-06-28T07:54:01.297Z,18.90
2018-06-28T07:55:01.191Z,19.49
2018-06-28T07:56:54.054Z,18.99
2018-06-28T07:57:53.860Z,18.79
2018-06-28T07:59:46.609Z,19.57
2018-06-28T08:00:46.500Z,19.09
2018-06-28T08:02:39.303Z,18.80
2018-06-28T08:03:39.152Z,18.70
2018-06-28T08:05:31.905Z,18.90
2018-06-28T08:06:31.795Z,18.71
2018-06-28T08:08:24.522Z,18.51
2018-06-28T08:09:24.444Z,18.99
2018-06-28T08:11:17.197Z,18.70
2018-06-28T08:12:17.088Z,18.90
2018-06-28T08:14:09.813Z,19.82
2018-06-28T08:15:09.737Z,20.61
2018-06-28T08:17:02.493Z,20.34
2018-06-28T08:18:02.399Z,19.76
2018-06-28T08:19:55.122Z,19.98
2018-06-28T08:20:55.040Z,18.99
2018-06-28T08:22:47.793Z,18.99
2018-06-28T08:23:47.683Z,19.64
2018-06-28T08:25:40.404Z,20.43
2018-06-28T08:26:40.328Z,19.85
2018-06-28T08:28:33.082Z,21.07
2018-06-28T08:29:32.974Z,22.35
2018-06-28T08:31:26.190Z,21.78
2018-06-28T08:32:26.112Z,20.60
2018-06-28T08:34:18.857Z,20.50
2018-06-28T08:35:18.758Z,21.19
2018-06-28T08:37:11.991Z,21.89
2018-06-28T08:38:11.909Z,22.27
2018-06-28T08:40:04.658Z,23.15
2018-06-28T08:41:04.556Z,23.20
2018-06-28T08:42:57.281Z,22.35
2018-06-28T08:43:57.194Z,21.84
2018-06-28T08:45:50.051Z,21.97
2018-06-28T08:46:49.944Z,22.05
2018-06-28T08:48:42.726Z,21.07
2018-06-28T08:49:42.649Z,21.83
2018-06-28T08:51:35.355Z,22.59
2018-06-28T08:52:35.242Z,22.67
2018-06-28T08:54:27.974Z,24.51
2018-06-28T08:55:27.901Z,24.69
2018-06-28T08:57:20.734Z,25.76
2018-06-28T08:58:20.597Z,26.72
2018-06-28T09:00:13.312Z,28.23
2018-06-28T09:01:13.223Z,29.69
2018-06-28T09:03:05.963Z,29.66
2018-06-28T09:04:05.846Z,30.24
2018-06-28T09:05:58.562Z,30.91
2018-06-28T09:06:58.470Z,31.10
2018-06-28T09:08:51.212Z,30.62
2018-06-28T09:09:51.089Z,32.28
2018-06-28T09:11:43.791Z,32.23
2018-06-28T09:12:43.705Z,33.20
2018-06-28T09:14:36.424Z,33.59
2018-06-28T09:15:36.312Z,34.48
2018-06-28T09:17:29.129Z,33.41
2018-06-28T09:18:29.084Z,32.62
2018-06-28T09:20:21.804Z,32.81
2018-06-28T09:21:21.687Z,33.26
2018-06-28T09:23:14.352Z,34.53
2018-06-28T09:24:14.310Z,34.82
2018-06-28T09:26:06.990Z,34.94
2018-06-28T09:27:06.865Z,34.64
2018-06-28T09:28:59.565Z,35.53
2018-06-28T09:29:59.469Z,34.76
2018-06-28T09:31:52.203Z,35.25
2018-06-28T09:32:52.089Z,34.29
2018-06-28T09:34:44.785Z,34.78
2018-06-28T09:35:44.752Z,32.71
2018-06-28T09:37:37.420Z,33.98
2018-06-28T09:38:37.304Z,34.55
2018-06-28T09:40:29.998Z,34.47
2018-06-28T09:41:29.902Z,34.00
2018-06-28T09:43:22.621Z,33.72
2018-06-28T09:44:22.506Z,33.61
2018-06-28T09:46:15.203Z,34.25
2018-06-28T09:47:15.110Z,33.75
2018-06-28T09:49:07.839Z,35.10
2018-06-28T09:50:07.720Z,35.88
2018-06-28T09:52:00.418Z,35.70
2018-06-28T09:53:00.322Z,35.39
2018-06-28T09:54:53.076Z,35.50
2018-06-28T09:55:52.927Z,35.89
2018-06-28T09:57:45.619Z,36.57
2018-06-28T09:58:45.528Z,36.87
2018-06-28T10:00:38.260Z,35.58
2018-06-28T10:01:38.134Z,37.22
2018-06-28T10:03:30.837Z,37.01
2018-06-28T10:04:30.743Z,37.39
2018-06-28T10:06:23.483Z,37.72
2018-06-28T10:07:23.350Z,36.24
2018-06-28T10:09:16.044Z,36.83
2018-06-28T10:10:15.956Z,37.12
2018-06-28T10:12:08.676Z,35.76
2018-06-28T10:13:08.594Z,36.05
2018-06-28T10:15:01.270Z,37.24
2018-06-28T10:16:01.163Z,36.46
2018-06-28T10:17:53.887Z,35.70
2018-06-28T10:18:53.761Z,35.60
2018-06-28T10:20:46.465Z,34.94
2018-06-28T10:21:46.367Z,35.21
2018-06-28T10:23:39.093Z,35.00
2018-06-28T10:24:39.039Z,36.07
2018-06-28T10:26:31.676Z,36.28
2018-06-28T10:27:31.587Z,35.71
2018-06-28T10:29:24.312Z,35.52
2018-06-28T10:30:24.191Z,35.71
2018-06-28T10:32:16.888Z,35.42
2018-06-28T10:33:16.788Z,37.16
2018-06-28T10:35:09.658Z,36.67
2018-06-28T10:36:09.470Z,36.47
2018-06-28T10:38:02.221Z,35.58
2018-06-28T10:39:02.083Z,36.24
2018-06-28T10:40:54.852Z,37.18
2018-06-28T10:41:54.688Z,37.96
2018-06-28T10:43:47.387Z,38.27
2018-06-28T10:44:47.288Z,35.63
2018-06-28T10:46:40.012Z,36.21
2018-06-28T10:47:39.893Z,36.89
2018-06-28T10:49:32.590Z,35.82
2018-06-28T10:50:32.547Z,36.40
2018-06-28T10:52:25.220Z,36.50
2018-06-28T10:53:25.112Z,36.40
2018-06-28T10:55:17.841Z,36.19
2018-06-28T10:56:17.725Z,36.29
2018-06-28T10:58:10.429Z,36.19
2018-06-28T10:59:10.308Z,36.48
2018-06-28T11:01:03.011Z,37.08
2018-06-28T11:02:02.915Z,36.89
2018-06-28T11:03:55.633Z,36.50
2018-06-28T11:04:55.509Z,36.91
2018-06-28T11:06:48.208Z,36.54
2018-06-28T11:07:48.121Z,35.76
2018-06-28T11:09:40.863Z,36.15
2018-06-28T11:10:40.757Z,35.45
2018-06-28T11:12:33.438Z,37.30
2018-06-28T11:13:33.339Z,37.22
2018-06-28T11:15:26.076Z,35.76
2018-06-28T11:16:25.969Z,36.73
2018-06-28T11:18:18.764Z,36.16
2018-06-28T11:19:18.665Z,36.85
2018-06-28T11:21:11.380Z,35.21
2018-06-28T11:22:11.252Z,35.10
2018-06-28T11:24:03.949Z,35.08
2018-06-28T11:25:03.858Z,30.61
2018-06-28T11:26:56.729Z,35.58
2018-06-28T11:27:56.460Z,35.10
2018-06-28T11:29:49.165Z,36.07
2018-06-28T11:30:49.066Z,35.19
2018-06-28T11:32:41.782Z,34.43
2018-06-28T11:33:41.663Z,34.82
2018-06-28T11:35:34.370Z,34.74
2018-06-28T11:36:34.274Z,35.03
2018-06-28T11:38:26.984Z,34.16
2018-06-28T11:39:26.872Z,34.55
2018-06-28T11:41:19.568Z,34.92
2018-06-28T11:42:19.471Z,35.39
2018-06-28T11:44:12.289Z,36.73
2018-06-28T11:45:12.196Z,36.22
2018-06-28T11:47:05.185Z,37.96
2018-06-28T11:48:04.837Z,37.96
2018-06-28T11:49:57.561Z,37.32
2018-06-28T11:50:57.433Z,36.63
2018-06-28T11:52:50.129Z,35.45
2018-06-28T11:53:50.028Z,35.35
2018-06-28T11:55:42.734Z,35.27
2018-06-28T11:56:42.627Z,35.96
2018-06-28T11:58:35.319Z,35.88
2018-06-28T11:59:35.230Z,35.88
2018-06-28T12:01:27.945Z,32.55
2018-06-28T12:02:27.830Z,36.32
2018-06-28T12:04:20.533Z,36.52
2018-06-28T12:05:20.443Z,37.30
2018-06-28T12:07:13.146Z,36.83
2018-06-28T12:08:13.022Z,37.43
2018-06-28T12:10:05.727Z,35.27
2018-06-28T12:11:05.630Z,35.94
2018-06-28T12:12:58.346Z,35.35
2018-06-28T12:13:58.234Z,35.57
2018-06-28T12:15:51.107Z,36.16
2018-06-28T12:16:51.056Z,35.78
2018-06-28T12:18:43.549Z,34.22
2018-06-28T12:19:43.460Z,34.63
2018-06-28T12:21:36.194Z,34.05
2018-06-28T12:22:36.075Z,34.33
2018-06-28T12:24:28.907Z,34.14
2018-06-28T12:25:28.747Z,34.14
2018-06-28T12:27:21.462Z,35.03
2018-06-28T12:28:21.369Z,35.05
2018-06-28T12:30:14.116Z,33.78
2018-06-28T12:31:14.002Z,33.80
2018-06-28T12:33:06.739Z,32.63
2018-06-28T12:34:06.575Z,32.94
2018-06-28T12:35:59.295Z,33.86
2018-06-28T12:36:59.180Z,34.55
2018-06-28T12:38:51.897Z,34.52
2018-06-28T12:39:51.811Z,35.66
2018-06-28T12:41:44.747Z,36.15
2018-06-28T12:42:44.398Z,36.05
2018-06-28T12:44:37.643Z,36.42
2018-06-28T12:45:37.538Z,36.42
2018-06-28T12:47:30.329Z,36.73
2018-06-28T12:48:30.173Z,36.05
2018-06-28T12:50:22.865Z,35.76
2018-06-28T12:51:22.734Z,35.68
2018-06-28T12:53:15.499Z,35.17
2018-06-28T12:54:15.437Z,35.39
2018-06-28T12:56:08.172Z,35.58
2018-06-28T12:57:08.068Z,34.82
2018-06-28T12:59:00.719Z,34.52
2018-06-28T13:00:00.625Z,34.61
2018-06-28T13:01:53.417Z,35.39
2018-06-28T13:02:53.218Z,35.21
2018-06-28T13:04:45.966Z,36.40
2018-06-28T13:05:45.858Z,36.00
2018-06-28T13:07:38.575Z,35.42
2018-06-28T13:08:38.466Z,35.33
2018-06-28T13:10:31.208Z,34.55
2018-06-28T13:11:31.061Z,33.95
2018-06-28T13:13:23.806Z,33.65
2018-06-28T13:14:23.670Z,33.75
2018-06-28T13:16:16.563Z,33.75
2018-06-28T13:17:16.320Z,34.14
2018-06-28T13:19:09.075Z,33.56
2018-06-28T13:20:09.066Z,33.26
2018-06-28T13:22:01.871Z,33.09
2018-06-28T13:23:01.541Z,32.70
2018-06-28T13:24:54.243Z,33.48
2018-06-28T13:25:54.148Z,34.25
2018-06-28T13:27:46.950Z,34.06
2018-06-28T13:28:46.780Z,34.45
2018-06-28T13:30:39.467Z,34.94
2018-06-28T13:31:39.348Z,34.45
2018-06-28T13:33:32.628Z,36.08
2018-06-28T13:34:32.533Z,36.28
2018-06-28T13:36:25.298Z,35.58
2018-06-28T13:37:25.203Z,34.90
2018-06-28T13:39:17.991Z,35.00
2018-06-28T13:40:17.836Z,34.82
2018-06-28T13:42:10.706Z,34.05
2018-06-28T13:43:10.514Z,34.82
2018-06-28T13:45:03.282Z,35.13
2018-06-28T13:46:03.105Z,34.45
2018-06-28T13:47:55.910Z,34.58
2018-06-28T13:48:55.785Z,34.00
2018-06-28T13:50:48.477Z,32.24
2018-06-28T13:51:48.363Z,32.34
2018-06-28T13:53:41.059Z,33.41
2018-06-28T13:54:40.961Z,33.38
2018-06-28T13:56:33.819Z,33.85
2018-06-28T13:57:33.568Z,34.14
2018-06-28T13:59:26.253Z,32.20
2018-06-28T14:00:26.165Z,32.10
2018-06-28T14:02:18.873Z,31.22
2018-06-28T14:03:18.895Z,31.22
2018-06-28T14:05:11.455Z,32.02
2018-06-28T14:06:11.357Z,32.40
2018-06-28T14:08:04.086Z,30.98
2018-06-28T14:09:03.972Z,31.27
2018-06-28T14:10:56.671Z,31.67
2018-06-28T14:11:56.576Z,32.05
2018-06-28T14:13:49.298Z,31.84
2018-06-28T14:14:49.191Z,32.42
2018-06-28T14:16:41.891Z,33.20
2018-06-28T14:17:41.799Z,33.78
2018-06-28T14:19:34.515Z,35.41
2018-06-28T14:20:34.447Z,35.31
2018-06-28T14:22:27.109Z,35.10
2018-06-28T14:23:27.002Z,35.27
2018-06-28T14:25:19.719Z,35.37
2018-06-28T14:26:19.605Z,35.19
2018-06-28T14:28:12.331Z,35.10
2018-06-28T14:29:12.217Z,34.22
2018-06-28T14:31:04.905Z,33.65
2018-06-28T14:32:04.805Z,33.65
2018-06-28T14:33:57.533Z,34.06
2018-06-28T14:34:57.411Z,34.55
2018-06-28T14:36:50.119Z,34.55
2018-06-28T14:37:50.027Z,34.45
2018-06-28T14:39:42.765Z,33.77
2018-06-28T14:40:42.624Z,34.37
2018-06-28T14:42:35.326Z,34.76
2018-06-28T14:43:35.220Z,34.17
2018-06-28T14:45:27.938Z,35.03
2018-06-28T14:46:27.814Z,34.82
2018-06-28T14:48:20.516Z,34.80
2018-06-28T14:49:20.426Z,34.61
2018-06-28T14:51:13.141Z,34.05
2018-06-28T14:52:13.028Z,33.46
2018-06-28T14:54:05.727Z,33.58
2018-06-28T14:55:05.638Z,33.28
2018-06-28T14:56:58.367Z,33.28
2018-06-28T14:57:58.234Z,33.48
2018-06-28T14:59:50.933Z,33.67
2018-06-28T15:00:50.830Z,33.28
2018-06-28T15:02:43.551Z,33.36
2018-06-28T15:03:43.441Z,33.25
2018-06-28T15:05:36.153Z,34.42
2018-06-28T15:06:36.056Z,34.43
2018-06-28T15:08:28.771Z,34.70
2018-06-28T15:09:28.664Z,34.63
2018-06-28T15:11:21.350Z,34.43
2018-06-28T15:12:21.259Z,34.43
2018-06-28T15:14:13.983Z,33.75
2018-06-28T15:15:13.865Z,33.96
2018-06-28T15:17:06.566Z,33.86
2018-06-28T15:18:06.468Z,33.77
2018-06-28T15:19:59.192Z,34.17
2018-06-28T15:20:59.074Z,34.66
2018-06-28T15:22:51.770Z,35.15
2018-06-28T15:23:51.677Z,35.23
2018-06-28T15:25:44.392Z,35.23
2018-06-28T15:26:44.279Z,35.23
2018-06-28T15:28:36.978Z,34.63
2018-06-28T15:29:36.885Z,34.72
2018-06-28T15:31:29.605Z,35.89
2018-06-28T15:32:29.493Z,35.03
2018-06-28T15:34:22.186Z,34.82
2018-06-28T15:35:22.085Z,34.82
2018-06-28T15:37:14.821Z,35.60
2018-06-28T15:38:14.709Z,36.57
2018-06-28T15:40:07.424Z,34.43
2018-06-28T15:41:07.307Z,34.32
2018-06-28T15:42:59.997Z,35.27
2018-06-28T15:43:59.902Z,35.76
2018-06-28T15:45:52.844Z,35.66
2018-06-28T15:46:52.504Z,35.27
2018-06-28T15:48:45.197Z,35.35
2018-06-28T15:49:45.098Z,34.95
2018-06-28T15:51:37.818Z,35.84
2018-06-28T15:52:37.696Z,35.74
2018-06-28T15:54:30.397Z,35.25
2018-06-28T15:55:30.299Z,34.67
2018-06-28T15:57:23.017Z,33.70
2018-06-28T15:58:22.896Z,33.41
2018-06-28T16:00:15.612Z,33.62
2018-06-28T16:01:15.498Z,34.11
2018-06-28T16:03:08.187Z,33.31
2018-06-28T16:04:08.094Z,33.70
2018-06-28T16:06:00.810Z,33.70
2018-06-28T16:07:00.702Z,34.20
2018-06-28T16:08:53.387Z,34.30
2018-06-28T16:09:53.288Z,34.69
2018-06-28T16:11:46.006Z,34.59
2018-06-28T16:12:45.898Z,34.59
2018-06-28T16:14:38.588Z,34.59
2018-06-28T16:15:38.499Z,34.50
2018-06-28T16:17:31.208Z,34.69
2018-06-28T16:18:31.092Z,34.59
2018-06-28T16:20:23.813Z,34.79
2018-06-28T16:21:23.701Z,34.88
2018-06-28T16:23:16.401Z,35.57
2018-06-28T16:24:16.301Z,35.08
2018-06-28T16:26:09.016Z,34.70
2018-06-28T16:27:08.896Z,34.90
2018-06-28T16:29:01.597Z,34.32
2018-06-28T16:30:01.503Z,33.64
2018-06-28T16:31:54.217Z,34.42
2018-06-28T16:32:54.099Z,34.70
2018-06-28T16:34:46.797Z,33.64
2018-06-28T16:35:46.698Z,33.93
2018-06-28T16:37:39.416Z,34.05
2018-06-28T16:38:39.306Z,34.12
2018-06-28T16:40:32.657Z,34.61
2018-06-28T16:41:31.901Z,34.42
2018-06-28T16:43:24.603Z,35.29
2018-06-28T16:44:24.505Z,34.42
2018-06-28T16:46:17.288Z,34.42
2018-06-28T16:47:17.110Z,34.61
2018-06-28T16:49:10.194Z,34.80
2018-06-28T16:50:09.705Z,34.61
2018-06-28T16:52:02.416Z,34.52
2018-06-28T16:53:02.366Z,34.32
2018-06-28T16:54:55.006Z,34.50
2018-06-28T16:55:54.895Z,35.17
2018-06-28T16:57:47.757Z,35.16
2018-06-28T16:58:47.513Z,35.96
2018-06-28T17:00:40.210Z,36.34
2018-06-28T17:01:40.090Z,36.24
2018-06-28T17:03:32.801Z,36.52
2018-06-28T17:04:32.705Z,36.52
2018-06-28T17:06:25.411Z,36.22
2018-06-28T17:07:25.300Z,36.71
2018-06-28T17:09:18.005Z,36.22
2018-06-28T17:10:17.910Z,36.42
2018-06-28T17:12:10.761Z,36.81
2018-06-28T17:13:10.514Z,36.71
2018-06-28T17:15:03.219Z,36.13
2018-06-28T17:16:03.096Z,36.04
2018-06-28T17:17:55.790Z,36.42
2018-06-28T17:18:55.693Z,35.94
2018-06-28T17:20:48.419Z,35.06
2018-06-28T17:21:48.297Z,35.06
2018-06-28T17:23:41.492Z,35.16
2018-06-28T17:24:41.391Z,35.55
2018-06-28T17:26:34.105Z,35.72
2018-06-28T17:27:33.994Z,35.06
2018-06-28T17:29:26.687Z,35.16
2018-06-28T17:30:26.593Z,34.66
2018-06-28T17:32:19.301Z,34.56
2018-06-28T17:33:19.205Z,34.56
2018-06-28T17:35:11.907Z,34.46
2018-06-28T17:36:11.785Z,34.66
2018-06-28T17:38:04.481Z,34.87
2018-06-28T17:39:04.398Z,34.67
2018-06-28T17:40:57.243Z,34.46
2018-06-28T17:41:56.977Z,34.56
2018-06-28T17:43:49.693Z,34.85
2018-06-28T17:44:49.579Z,34.77
2018-06-28T17:46:42.332Z,34.85
2018-06-28T17:47:42.174Z,34.87
2018-06-28T17:49:34.894Z,34.66
2018-06-28T17:50:34.768Z,34.56
2018-06-28T17:52:27.480Z,34.56
2018-06-28T17:53:27.363Z,34.36
2018-06-28T17:55:20.086Z,34.36
2018-06-28T17:56:19.964Z,34.75
2018-06-28T17:58:12.664Z,35.14
2018-06-28T17:59:12.572Z,35.05
2018-06-28T18:01:05.435Z,35.72
2018-06-28T18:02:05.225Z,35.63
2018-06-28T18:03:57.917Z,35.82
2018-06-28T18:04:57.847Z,35.80
2018-06-28T18:06:50.547Z,36.00
2018-06-28T18:07:50.426Z,35.51
2018-06-28T18:09:43.138Z,35.80
2018-06-28T18:10:43.033Z,35.90
2018-06-28T18:12:35.752Z,36.00
2018-06-28T18:13:35.628Z,35.32
2018-06-28T18:15:28.331Z,35.41
2018-06-28T18:16:28.231Z,35.80
2018-06-28T18:18:20.911Z,36.38
2018-06-28T18:19:20.816Z,36.00
2018-06-28T18:21:13.530Z,36.08
2018-06-28T18:22:13.415Z,35.88
2018-06-28T18:24:06.099Z,36.38
2018-06-28T18:25:06.005Z,36.56
2018-06-28T18:26:58.719Z,36.76
2018-06-28T18:27:58.601Z,36.85
2018-06-28T18:29:51.307Z,36.76
2018-06-28T18:30:51.195Z,36.95
2018-06-28T18:32:43.887Z,37.34
2018-06-28T18:33:43.783Z,36.95
2018-06-28T18:35:36.505Z,37.43
2018-06-28T18:36:36.394Z,37.90
2018-06-28T18:38:29.114Z,37.34
2018-06-28T18:39:29.099Z,37.41
2018-06-28T18:41:21.706Z,37.92
2018-06-28T18:42:21.593Z,37.90
2018-06-28T18:44:14.286Z,38.29
2018-06-28T18:45:14.224Z,38.39
2018-06-28T18:47:06.899Z,39.06
2018-06-28T18:48:06.786Z,38.87
2018-06-28T18:49:59.500Z,39.26
2018-06-28T18:50:59.384Z,39.45
2018-06-28T18:52:52.079Z,39.74
2018-06-28T18:53:51.984Z,40.03
2018-06-28T18:55:44.686Z,40.69
2018-06-28T18:56:44.572Z,40.59
2018-06-28T18:58:37.260Z,40.99
2018-06-28T18:59:37.160Z,40.99
2018-06-28T19:01:29.876Z,41.37
2018-06-28T19:02:29.764Z,42.05
2018-06-28T19:04:22.461Z,41.45
2018-06-28T19:05:22.369Z,42.03
2018-06-28T19:07:15.071Z,42.61
2018-06-28T19:08:14.958Z,42.32
2018-06-28T19:10:07.798Z,43.19
2018-06-28T19:11:07.559Z,42.90
2018-06-28T19:13:00.249Z,43.38
2018-06-28T19:14:00.180Z,43.27
2018-06-28T19:15:52.867Z,43.95
2018-06-28T19:16:52.751Z,43.65
2018-06-28T19:18:45.443Z,43.95
2018-06-28T19:19:45.353Z,44.04
2018-06-28T19:21:38.064Z,44.53
2018-06-28T19:22:37.945Z,44.79
2018-06-28T19:24:30.637Z,44.89
2018-06-28T19:25:30.543Z,44.89
2018-06-28T19:27:23.257Z,44.70
2018-06-28T19:28:23.136Z,44.60
2018-06-28T19:30:15.852Z,45.18
2018-06-28T19:31:15.732Z,45.08
2018-06-28T19:33:08.435Z,44.98
2018-06-28T19:34:08.325Z,45.57
2018-06-28T19:36:01.041Z,45.66
2018-06-28T19:37:00.926Z,45.45
2018-06-28T19:38:53.611Z,45.95
2018-06-28T19:39:53.516Z,45.66
2018-06-28T19:41:46.368Z,46.42
2018-06-28T19:42:46.099Z,46.22
2018-06-28T19:44:38.797Z,46.22
2018-06-28T19:45:38.697Z,46.70
2018-06-28T19:47:31.402Z,47.09
2018-06-28T19:48:31.305Z,47.19
2018-06-28T19:50:23.976Z,47.26
2018-06-28T19:51:23.873Z,47.16
2018-06-28T19:53:16.653Z,48.42
2018-06-28T19:54:16.465Z,47.84
2018-06-28T19:56:09.156Z,48.03
2018-06-28T19:57:09.063Z,48.03
2018-06-28T19:59:01.772Z,48.71
2018-06-28T20:00:01.656Z,48.69
2018-06-28T20:01:54.388Z,48.69
2018-06-28T20:02:54.265Z,48.59
2018-06-28T20:04:46.955Z,49.37
2018-06-28T20:05:46.860Z,49.17
2018-06-28T20:07:39.575Z,49.46
2018-06-28T20:08:39.456Z,49.37
2018-06-28T20:10:32.180Z,49.46
2018-06-28T20:11:32.047Z,49.37
2018-06-28T20:13:24.757Z,49.46
2018-06-28T20:14:24.635Z,49.75
2018-06-28T20:16:17.372Z,49.73
2018-06-28T20:17:17.228Z,49.82
2018-06-28T20:19:09.950Z,50.31
2018-06-28T20:20:09.826Z,50.11
2018-06-28T20:22:02.532Z,50.98
2018-06-28T20:23:02.419Z,50.79
2018-06-28T20:24:55.169Z,50.79
2018-06-28T20:25:55.063Z,51.46
2018-06-28T20:27:47.780Z,51.65
2018-06-28T20:28:47.656Z,51.56
2018-06-28T20:30:40.839Z,52.01
2018-06-28T20:31:40.736Z,52.01
2018-06-28T20:33:33.636Z,51.82
2018-06-28T20:34:33.518Z,51.92
2018-06-28T20:36:26.202Z,52.11
2018-06-28T20:37:26.102Z,52.50
2018-06-28T20:39:18.815Z,52.50
2018-06-28T20:40:18.693Z,52.11
2018-06-28T20:42:11.378Z,52.69
2018-06-28T20:43:11.284Z,52.89
2018-06-28T20:45:04.048Z,53.27
2018-06-28T20:46:03.876Z,53.44
2018-06-28T20:47:56.562Z,53.37
2018-06-28T20:48:56.464Z,53.27
2018-06-28T20:50:49.183Z,53.83
2018-06-28T20:51:49.048Z,53.73
2018-06-28T20:53:41.737Z,54.40
2018-06-28T20:54:41.636Z,54.21
2018-06-28T20:56:34.340Z,54.31
2018-06-28T20:57:34.225Z,54.69
2018-06-28T20:59:26.911Z,54.79
2018-06-28T21:00:26.812Z,55.18
2018-06-28T21:02:19.524Z,55.56
2018-06-28T21:03:19.393Z,55.44
2018-06-28T21:05:12.091Z,55.73
2018-06-28T21:06:11.982Z,55.63
2018-06-28T21:08:04.690Z,56.01
2018-06-28T21:09:04.621Z,56.49
2018-06-28T21:10:57.504Z,56.69
2018-06-28T21:11:57.161Z,56.69
2018-06-28T21:13:49.913Z,57.07
2018-06-28T21:14:49.747Z,57.75
2018-06-28T21:16:42.445Z,58.23
2018-06-28T21:17:42.345Z,58.14
2018-06-28T21:19:35.056Z,58.20
2018-06-28T21:20:34.931Z,58.01
2018-06-28T21:22:27.615Z,58.40
2018-06-28T21:23:27.515Z,58.40
2018-06-28T21:25:20.238Z,58.49
2018-06-28T21:26:20.110Z,58.88
2018-06-28T21:28:12.801Z,58.78
2018-06-28T21:29:12.699Z,58.97
2018-06-28T21:31:05.405Z,59.17
2018-06-28T21:32:05.279Z,59.45
2018-06-28T21:33:57.961Z,59.65
2018-06-28T21:34:57.862Z,59.27
2018-06-28T21:36:50.574Z,59.84
2018-06-28T21:37:50.608Z,60.13
2018-06-28T21:39:43.483Z,59.75
2018-06-28T21:40:43.042Z,60.13
2018-06-28T21:42:35.754Z,60.23
2018-06-28T21:43:35.627Z,60.52
2018-06-28T21:45:28.313Z,60.97
2018-06-28T21:46:28.211Z,60.97
2018-06-28T21:48:20.960Z,60.58
2018-06-28T21:49:20.807Z,60.68
2018-06-28T21:51:13.488Z,61.25
2018-06-28T21:52:13.391Z,61.25
2018-06-28T21:54:06.104Z,61.45
2018-06-28T21:55:05.977Z,61.35
2018-06-28T21:56:58.813Z,61.65
2018-06-28T21:57:58.560Z,61.65
2018-06-28T21:59:51.269Z,61.61
